Time;durP1;ratioP1;P1;durP2;ratioP2;P2;SDS_P1;SDS_P2;PMS_P1;PMS_P2;Temp;Humidity;BMP_temperature;BMP_pressure;BME280_temperature;BME280_humidity;BME280_pressure;Samples;Min_cycle;Max_cycle;Signal;HPM_P1;HPM_P2
2022/05/04 00:01:37;;;;;;;19.65;9.05;;;9.30;99.90;;;;;;5033447;28;20071;-62
2022/05/04 00:04:03;;;;;;;18.10;8.45;;;9.30;99.90;;;;;;5033221;28;20105;-62
2022/05/04 00:06:28;;;;;;;19.95;9.35;;;9.20;99.90;;;;;;5033156;28;20044;-62
2022/05/04 00:08:54;;;;;;;18.20;8.88;;;9.20;99.90;;;;;;5033011;28;20056;-62
2022/05/04 00:11:19;;;;;;;20.13;8.60;;;9.20;99.90;;;;;;5033858;28;20021;-63
2022/05/04 00:13:45;;;;;;;20.05;9.00;;;9.10;99.90;;;;;;5034142;28;20069;-62
2022/05/04 00:16:11;;;;;;;22.65;9.70;;;9.10;99.90;;;;;;5058915;23;20026;-61
2022/05/04 00:18:36;;;;;;;17.98;8.75;;;9.10;99.90;;;;;;5050977;28;20035;-62
2022/05/04 00:21:02;;;;;;;17.70;8.57;;;9.00;99.90;;;;;;5072456;28;20457;-62
2022/05/04 00:23:28;;;;;;;17.20;9.35;;;9.00;99.90;;;;;;5072643;28;20044;-63
2022/05/04 00:25:53;;;;;;;17.63;8.88;;;9.00;99.90;;;;;;5072073;28;20070;-64
2022/05/04 00:28:19;;;;;;;22.63;9.20;;;8.90;99.90;;;;;;5072210;28;20024;-61
2022/05/04 00:30:44;;;;;;;18.67;8.90;;;8.90;99.90;;;;;;5054073;28;20118;-63
2022/05/04 00:33:10;;;;;;;18.42;8.45;;;8.90;99.90;;;;;;5072154;28;20013;-62
2022/05/04 00:35:36;;;;;;;20.20;9.13;;;8.80;99.90;;;;;;5072198;28;20353;-63
2022/05/04 00:38:02;;;;;;;18.25;8.25;;;8.80;99.90;;;;;;5072533;28;20028;-63
2022/05/04 00:40:28;;;;;;;21.20;8.98;;;8.80;99.90;;;;;;5073122;28;20040;-62
2022/05/04 00:42:53;;;;;;;17.10;8.18;;;8.80;99.90;;;;;;5073005;28;20376;-63
2022/05/04 00:45:19;;;;;;;18.33;8.35;;;8.70;99.90;;;;;;5072729;28;20029;-61
2022/05/04 00:47:45;;;;;;;21.77;9.23;;;8.70;99.90;;;;;;5072021;28;20448;-61
2022/05/04 00:50:10;;;;;;;21.05;9.60;;;8.70;99.90;;;;;;5073232;28;20035;-63
2022/05/04 00:52:39;;;;;;;19.55;9.15;;;8.70;99.90;;;;;;5057980;28;20021;-62
2022/05/04 00:55:09;;;;;;;18.73;8.80;;;8.70;99.90;;;;;;5058050;28;20019;-60
2022/05/04 01:00:22;;;;;;;22.13;9.20;;;8.60;99.90;;;;;;5076215;28;20032;-62
2022/05/04 01:02:48;;;;;;;20.27;8.98;;;8.60;99.90;;;;;;5076168;28;20013;-63
2022/05/04 01:05:13;;;;;;;19.30;8.80;;;8.60;99.90;;;;;;5057795;28;20350;-61
2022/05/04 01:07:42;;;;;;;23.90;10.20;;;8.60;99.90;;;;;;5075750;28;20017;-62
2022/05/04 01:10:09;;;;;;;;;;;8.50;99.90;;;;;;5057780;28;20021;-62
2022/05/04 01:12:35;;;;;;;18.42;9.18;;;8.50;99.90;;;;;;5057589;28;19907;-61
2022/05/04 01:15:02;;;;;;;23.40;9.38;;;8.50;99.90;;;;;;5074811;28;20028;-61
2022/05/04 01:17:28;;;;;;;19.42;9.40;;;8.50;99.90;;;;;;5075103;28;20025;-62
2022/05/04 01:19:56;;;;;;;18.58;9.55;;;8.40;99.90;;;;;;5075144;28;20043;-63
2022/05/04 01:22:23;;;;;;;19.52;9.15;;;8.40;99.90;;;;;;5057188;28;20016;-63
2022/05/04 01:24:49;;;;;;;21.13;9.20;;;8.30;99.90;;;;;;5075088;28;20373;-61
2022/05/04 01:27:15;;;;;;;23.83;10.02;;;8.30;99.90;;;;;;5075139;28;20024;-61
2022/05/04 01:29:40;;;;;;;20.08;9.35;;;8.30;99.90;;;;;;5074635;28;20028;-62
2022/05/04 01:32:06;;;;;;;21.92;10.50;;;8.30;99.90;;;;;;5074797;28;20016;-62
2022/05/04 01:34:32;;;;;;;22.35;9.45;;;8.30;99.90;;;;;;5056794;28;20104;-63
2022/05/04 01:36:57;;;;;;;20.23;8.98;;;8.30;99.90;;;;;;5056929;28;20454;-62
2022/05/04 01:39:23;;;;;;;21.73;9.60;;;8.30;99.90;;;;;;5056560;28;20021;-60
2022/05/04 01:42:05;;;;;;;21.77;10.05;;;8.30;99.90;;;;;;5074552;28;20491;-61
2022/05/04 01:44:32;;;;;;;21.38;10.23;;;8.30;99.90;;;;;;5056604;28;20025;-63
2022/05/04 01:46:58;;;;;;;22.33;9.32;;;8.20;99.90;;;;;;5056561;28;20063;-63
2022/05/04 01:49:24;;;;;;;19.25;9.77;;;8.20;99.90;;;;;;5074408;28;20056;-62
2022/05/04 01:51:49;;;;;;;22.33;9.63;;;8.20;99.90;;;;;;5056650;28;20044;-62
2022/05/04 01:54:15;;;;;;;19.08;9.77;;;8.10;99.90;;;;;;5074383;28;20023;-63
2022/05/04 01:56:41;;;;;;;24.83;9.95;;;8.10;99.90;;;;;;5074243;28;20043;-62
2022/05/04 01:59:06;;;;;;;19.15;9.43;;;8.10;99.90;;;;;;5056406;28;20026;-61
2022/05/04 02:01:32;;;;;;;28.95;10.85;;;8.10;99.90;;;;;;5073785;28;20465;-62
2022/05/04 02:03:58;;;;;;;25.63;11.85;;;8.00;99.90;;;;;;5074361;28;20033;-62
2022/05/04 02:06:24;;;;;;;22.00;9.85;;;8.00;99.90;;;;;;5074176;28;20111;-61
2022/05/04 02:08:51;;;;;;;20.80;9.82;;;7.90;99.90;;;;;;5074012;28;20096;-62
2022/05/04 02:11:17;;;;;;;22.80;10.68;;;7.90;99.90;;;;;;5056227;28;20020;-62
2022/05/04 02:13:43;;;;;;;23.60;10.68;;;7.80;99.90;;;;;;5056142;28;20027;-63
2022/05/04 02:16:08;;;;;;;21.50;10.30;;;7.80;99.90;;;;;;5073994;28;20059;-62
2022/05/04 02:18:34;;;;;;;24.20;10.82;;;7.70;99.90;;;;;;5073984;28;20024;-62
2022/05/04 02:21:00;;;;;;;23.17;10.48;;;7.70;99.90;;;;;;5073826;28;20070;-61
2022/05/04 02:23:25;;;;;;;24.10;10.68;;;7.70;99.90;;;;;;5073871;28;20031;-62
2022/05/04 02:25:51;;;;;;;18.38;9.43;;;7.70;99.90;;;;;;5073739;28;20031;-63
2022/05/04 02:28:18;;;;;;;25.05;9.57;;;7.70;99.90;;;;;;5074122;28;20111;-62
2022/05/04 02:30:44;;;;;;;25.45;10.45;;;7.70;99.90;;;;;;5073771;28;20353;-63
2022/05/04 02:33:10;;;;;;;20.42;10.40;;;7.70;99.90;;;;;;5074094;28;20094;-63
2022/05/04 02:38:21;;;;;;;23.73;9.80;;;7.70;99.90;;;;;;5073860;28;20031;-61
2022/05/04 02:40:47;;;;;;;22.27;10.55;;;7.70;99.90;;;;;;5073526;28;20031;-63
2022/05/04 02:43:13;;;;;;;23.77;10.52;;;7.60;99.90;;;;;;5073722;28;20099;-61
2022/05/04 02:45:39;;;;;;;20.10;10.07;;;7.60;99.90;;;;;;5073329;28;20016;-62
2022/05/04 02:48:05;;;;;;;22.42;10.60;;;7.60;99.90;;;;;;5073520;28;20020;-61
2022/05/04 02:50:31;;;;;;;24.40;10.75;;;7.50;99.90;;;;;;5055146;28;20074;-63
2022/05/04 02:52:56;;;;;;;24.77;9.93;;;7.50;99.90;;;;;;5073439;28;20415;-63
2022/05/04 02:55:22;;;;;;;23.25;9.85;;;7.50;99.90;;;;;;5073248;28;20116;-63
2022/05/04 02:57:47;;;;;;;20.60;10.02;;;7.50;99.90;;;;;;5073488;28;20024;-62
2022/05/04 03:00:13;;;;;;;21.02;9.25;;;7.40;99.90;;;;;;5073119;28;20017;-60
2022/05/04 03:02:39;;;;;;;22.45;9.80;;;7.50;99.90;;;;;;5055431;28;20484;-61
2022/05/04 03:05:07;;;;;;;20.83;9.60;;;7.60;99.90;;;;;;5055288;28;20028;-60
2022/05/04 03:07:32;;;;;;;27.38;10.55;;;7.60;99.90;;;;;;5073029;28;20548;-63
2022/05/04 03:09:59;;;;;;;19.58;9.88;;;7.70;99.90;;;;;;5072809;28;20115;-62
2022/05/04 03:12:25;;;;;;;25.25;10.85;;;7.70;99.90;;;;;;5072162;28;20035;-64
2022/05/04 03:14:52;;;;;;;24.40;10.00;;;7.70;99.90;;;;;;5072854;28;20021;-60
2022/05/04 03:17:18;;;;;;;20.92;9.95;;;7.70;99.90;;;;;;5072701;28;20477;-64
2022/05/04 03:19:44;;;;;;;26.05;10.02;;;7.70;99.90;;;;;;5072735;28;20052;-63
2022/05/04 03:22:11;;;;;;;23.90;9.75;;;7.60;99.90;;;;;;5073212;28;20492;-61
2022/05/04 03:24:36;;;;;;;25.52;13.13;;;7.50;99.90;;;;;;5072856;28;20021;-62
2022/05/04 03:27:02;;;;;;;20.75;11.30;;;7.50;99.90;;;;;;5072806;28;20518;-62
2022/05/04 03:29:28;;;;;;;24.38;10.88;;;7.40;99.90;;;;;;5072654;28;20043;-61
2022/05/04 03:31:54;;;;;;;21.50;10.20;;;7.40;99.90;;;;;;5072849;28;20127;-61
2022/05/04 03:34:19;;;;;;;24.50;10.93;;;7.30;99.90;;;;;;5072956;28;20031;-64
2022/05/04 03:36:46;;;;;;;24.42;10.20;;;7.20;99.90;;;;;;5072741;28;20020;-61
2022/05/04 03:39:11;;;;;;;24.33;10.95;;;7.20;99.90;;;;;;5072733;28;20036;-61
2022/05/04 03:41:38;;;;;;;25.15;10.55;;;7.20;99.90;;;;;;5072801;28;20369;-65
2022/05/04 03:44:05;;;;;;;22.45;10.55;;;7.20;99.90;;;;;;5072416;28;20134;-60
2022/05/04 03:46:45;;;;;;;25.45;12.38;;;7.20;99.90;;;;;;5054586;28;20031;-62
2022/05/04 03:49:11;;;;;;;25.13;10.98;;;7.20;99.90;;;;;;5072454;28;20012;-59
2022/05/04 03:51:38;;;;;;;20.83;10.45;;;7.20;99.90;;;;;;5072897;28;20016;-61
2022/05/04 03:54:03;;;;;;;22.92;10.85;;;7.10;99.90;;;;;;5072085;28;20051;-63
2022/05/04 03:56:29;;;;;;;21.65;11.57;;;7.10;99.90;;;;;;5072113;28;20045;-63
2022/05/04 03:58:55;;;;;;;22.88;10.80;;;7.10;99.90;;;;;;5072253;28;20112;-64
2022/05/04 04:01:21;;;;;;;22.30;11.85;;;7.10;99.90;;;;;;5072473;28;20020;-62
2022/05/04 04:03:47;;;;;;;20.77;10.60;;;7.10;99.90;;;;;;5072091;28;20074;-62
2022/05/04 04:06:13;;;;;;;26.50;12.70;;;7.10;99.90;;;;;;5072343;28;20016;-64
2022/05/04 04:08:39;;;;;;;24.55;12.02;;;7.10;99.90;;;;;;5054119;28;20017;-63
2022/05/04 04:11:05;;;;;;;25.25;11.75;;;7.10;99.90;;;;;;5071978;28;20021;-64
2022/05/04 04:13:30;;;;;;;25.33;11.80;;;7.20;99.90;;;;;;5072030;28;20017;-64
2022/05/04 04:15:56;;;;;;;22.30;10.48;;;7.20;99.90;;;;;;5072098;28;20019;-62
2022/05/04 04:18:24;;;;;;;24.20;11.10;;;7.20;99.90;;;;;;5071870;28;20499;-62
2022/05/04 04:23:35;;;;;;;25.40;11.05;;;7.20;99.90;;;;;;5072582;28;20438;-64
2022/05/04 04:26:03;;;;;;;21.83;11.40;;;7.20;99.90;;;;;;5076308;28;20407;-63
2022/05/04 04:28:29;;;;;;;26.27;11.98;;;7.30;99.90;;;;;;5076102;28;20476;-61
2022/05/04 04:30:54;;;;;;;23.48;11.85;;;7.30;99.90;;;;;;5075751;28;20040;-64
2022/05/04 04:33:26;;;;;;;23.58;11.77;;;7.40;99.90;;;;;;5076004;28;20020;-63
2022/05/04 04:35:53;;;;;;;25.33;11.68;;;7.50;99.90;;;;;;5075915;28;20024;-60
2022/05/04 04:38:19;;;;;;;22.50;10.52;;;7.40;99.90;;;;;;5075636;28;20561;-62
2022/05/04 04:40:44;;;;;;;21.92;11.02;;;7.50;99.90;;;;;;5057690;28;20028;-60
2022/05/04 04:43:10;;;;;;;27.45;11.85;;;7.60;99.90;;;;;;5075663;28;20024;-63
2022/05/04 04:45:36;;;;;;;22.88;10.95;;;7.80;99.90;;;;;;5075165;28;20028;-60
2022/05/04 04:48:02;;;;;;;28.50;12.13;;;7.90;99.90;;;;;;5075439;28;20048;-62
2022/05/04 04:50:28;;;;;;;23.27;11.45;;;8.10;99.90;;;;;;5075034;28;20048;-63
2022/05/04 04:52:53;;;;;;;23.67;10.82;;;8.20;99.90;;;;;;5075346;28;20063;-62
2022/05/04 04:55:19;;;;;;;21.92;10.57;;;8.30;99.90;;;;;;5075315;28;20099;-61
2022/05/04 04:57:45;;;;;;;22.48;13.07;;;8.40;99.90;;;;;;5057371;28;20017;-63
2022/05/04 05:00:11;;;;;;;26.23;12.27;;;8.40;99.90;;;;;;5074954;28;20098;-61
2022/05/04 05:02:37;;;;;;;21.83;11.57;;;8.40;99.90;;;;;;5075238;28;20211;-63
2022/05/04 05:05:03;;;;;;;23.95;11.45;;;8.40;99.90;;;;;;5074745;28;20054;-63
2022/05/04 05:07:29;;;;;;;22.23;12.05;;;8.40;99.90;;;;;;5075005;28;20097;-62
2022/05/04 05:09:55;;;;;;;22.42;11.10;;;8.40;99.90;;;;;;5074949;28;20076;-62
2022/05/04 05:12:21;;;;;;;21.33;11.23;;;8.50;99.90;;;;;;5056643;28;20372;-64
2022/05/04 05:17:32;;;;;;;22.85;12.25;;;8.60;99.90;;;;;;5075055;28;20043;-64
2022/05/04 05:19:58;;;;;;;23.10;12.40;;;8.70;99.90;;;;;;5056670;28;20154;-63
2022/05/04 05:22:24;;;;;;;22.20;12.15;;;8.80;99.90;;;;;;5074837;28;20210;-58
2022/05/04 05:24:49;;;;;;;26.40;11.50;;;8.90;99.90;;;;;;5074728;28;20383;-62
2022/05/04 05:27:15;;;;;;;22.52;13.20;;;9.00;99.90;;;;;;5073984;28;20020;-63
2022/05/04 05:29:40;;;;;;;22.70;11.95;;;9.00;99.90;;;;;;5074166;28;20372;-63
2022/05/04 05:32:06;;;;;;;22.00;10.48;;;9.10;99.90;;;;;;5074192;28;20020;-62
2022/05/04 05:34:33;;;;;;;23.00;10.60;;;9.20;99.90;;;;;;5073871;28;20024;-62
2022/05/04 05:37:00;;;;;;;21.50;10.60;;;9.10;99.90;;;;;;5072701;28;20375;-63
2022/05/04 05:39:25;;;;;;;28.80;15.00;;;9.00;99.90;;;;;;5073217;28;20024;-64
2022/05/04 05:41:52;;;;;;;28.58;13.02;;;9.00;99.90;;;;;;5072734;28;20431;-63
2022/05/04 05:44:17;;;;;;;25.63;13.85;;;9.00;99.90;;;;;;5054782;28;20472;-63
2022/05/04 05:46:43;;;;;;;31.42;18.30;;;8.90;99.90;;;;;;5073346;28;20054;-64
2022/05/04 05:49:09;;;;;;;26.23;12.23;;;8.90;99.90;;;;;;5073352;28;20028;-61
2022/05/04 05:51:34;;;;;;;26.30;12.73;;;8.90;99.90;;;;;;5073800;28;20061;-60
2022/05/04 05:54:00;;;;;;;27.40;12.43;;;8.80;99.90;;;;;;5073635;28;20008;-60
2022/05/04 05:56:25;;;;;;;30.38;13.32;;;8.80;99.90;;;;;;5073441;28;20016;-62
2022/05/04 05:58:51;;;;;;;22.90;11.82;;;8.90;99.90;;;;;;5055373;28;20013;-58
2022/05/04 06:01:17;;;;;;;23.95;11.77;;;9.00;99.90;;;;;;5073203;28;20144;-60
2022/05/04 06:03:42;;;;;;;21.65;11.32;;;9.10;99.90;;;;;;5055015;28;20043;-59
2022/05/04 06:06:08;;;;;;;25.58;11.00;;;9.20;99.90;;;;;;5072331;28;20032;-63
2022/05/04 06:08:34;;;;;;;24.00;12.02;;;9.30;99.90;;;;;;5072837;28;20080;-62
2022/05/04 06:11:00;;;;;;;23.92;12.32;;;9.30;99.90;;;;;;5054356;28;20051;-63
2022/05/04 06:13:25;;;;;;;28.02;11.77;;;9.40;99.90;;;;;;5055100;28;20432;-63
2022/05/04 06:15:51;;;;;;;29.83;12.25;;;9.40;99.90;;;;;;5073626;28;20031;-62
2022/05/04 06:18:16;;;;;;;24.98;11.15;;;9.50;99.90;;;;;;5074661;28;20039;-65
2022/05/04 06:20:42;;;;;;;24.33;10.73;;;9.50;99.90;;;;;;5073414;28;20421;-64
2022/05/04 06:23:08;;;;;;;23.92;12.05;;;9.60;99.90;;;;;;5073614;28;20090;-67
2022/05/04 06:25:35;;;;;;;24.52;10.85;;;9.60;99.90;;;;;;5073036;28;20020;-64
2022/05/04 06:28:01;;;;;;;24.02;10.90;;;9.70;99.90;;;;;;5073382;28;20062;-61
2022/05/04 06:35:55;;;;;;;20.45;10.93;;;10.00;99.90;;;;;;5072992;28;20061;-64
2022/05/04 06:38:20;;;;;;;22.30;11.95;;;10.10;99.90;;;;;;5073038;28;20590;-65
2022/05/04 06:40:46;;;;;;;24.42;11.35;;;10.10;99.90;;;;;;5072975;28;20020;-64
2022/05/04 06:43:12;;;;;;;25.70;10.75;;;10.10;99.90;;;;;;5072729;28;20024;-64
2022/05/04 06:45:37;;;;;;;23.25;11.05;;;10.30;99.90;;;;;;5072574;28;20495;-65
2022/05/04 06:48:04;;;;;;;22.63;10.38;;;10.30;99.90;;;;;;5054854;28;20483;-60
2022/05/04 06:50:30;;;;;;;20.48;11.70;;;10.40;99.90;;;;;;5072308;28;20108;-65
2022/05/04 06:52:56;;;;;;;22.02;10.40;;;10.50;99.90;;;;;;5072537;28;20032;-64
2022/05/04 06:55:22;;;;;;;23.58;10.35;;;10.60;99.90;;;;;;5072305;28;20384;-64
2022/05/04 06:57:47;;;;;;;23.15;10.23;;;10.60;99.90;;;;;;5073025;28;20062;-64
2022/05/04 07:00:13;;;;;;;21.70;10.65;;;10.70;99.90;;;;;;5072627;28;20033;-64
2022/05/04 07:02:40;;;;;;;23.05;10.55;;;10.90;99.90;;;;;;5072483;28;20024;-64
2022/05/04 07:05:06;;;;;;;23.48;10.90;;;11.00;99.90;;;;;;5072304;28;20020;-65
2022/05/04 07:07:32;;;;;;;25.15;11.05;;;10.90;99.90;;;;;;5072948;28;20027;-62
2022/05/04 07:09:58;;;;;;;24.65;11.25;;;11.10;99.90;;;;;;5072248;28;20025;-60
2022/05/04 07:12:24;;;;;;;26.55;10.68;;;11.10;99.90;;;;;;5074716;28;20020;-63
2022/05/04 07:14:51;;;;;;;23.58;10.43;;;11.20;99.90;;;;;;5075477;28;20051;-63
2022/05/04 07:17:17;;;;;;;24.02;10.73;;;11.40;99.90;;;;;;5074948;28;20028;-64
2022/05/04 07:19:43;;;;;;;19.67;9.80;;;11.50;99.90;;;;;;5075469;28;20044;-63
2022/05/04 07:22:09;;;;;;;21.60;9.88;;;11.60;99.90;;;;;;5075484;28;20036;-59
2022/05/04 07:24:35;;;;;;;18.90;10.40;;;11.60;99.90;;;;;;5073476;28;20028;-62
2022/05/04 07:27:01;;;;;;;19.23;10.63;;;11.60;99.90;;;;;;5056587;28;20021;-64
2022/05/04 07:29:26;;;;;;;20.75;10.55;;;11.70;99.90;;;;;;5073581;28;20044;-63
2022/05/04 07:31:52;;;;;;;22.02;10.50;;;11.90;99.90;;;;;;5074539;28;20074;-66
2022/05/04 07:34:18;;;;;;;21.52;10.13;;;12.10;99.90;;;;;;5073478;28;20099;-63
2022/05/04 07:36:44;;;;;;;23.08;11.05;;;12.20;99.90;;;;;;5073400;28;20028;-63
2022/05/04 07:42:21;;;;;;;22.02;10.90;;;12.40;99.90;;;;;;5073708;28;20031;-64
2022/05/04 07:44:40;;;;;;;21.40;9.65;;;13.20;99.90;;;;;;5073575;28;20054;-64
2022/05/04 07:47:06;;;;;;;21.98;11.32;;;13.50;99.90;;;;;;5073022;28;20028;-64
2022/05/04 07:49:32;;;;;;;24.42;11.88;;;13.50;99.90;;;;;;5073075;28;20166;-63
2022/05/04 07:51:58;;;;;;;20.70;11.15;;;13.80;99.90;;;;;;5053228;28;20497;-63
2022/05/04 07:54:23;;;;;;;21.70;10.88;;;13.80;99.90;;;;;;5054085;28;20071;-65
2022/05/04 07:56:49;;;;;;;23.85;11.70;;;13.90;99.90;;;;;;5071578;28;20028;-63
2022/05/04 07:59:15;;;;;;;20.63;11.45;;;13.90;99.90;;;;;;5070983;28;20024;-63
2022/05/04 08:04:24;;;;;;;25.10;11.32;;;13.80;99.90;;;;;;5071910;28;20085;-60
2022/05/04 08:06:50;;;;;;;21.48;11.95;;;13.70;99.90;;;;;;5071553;28;20099;-60
2022/05/04 08:09:16;;;;;;;24.13;12.02;;;13.60;99.90;;;;;;5070926;28;20114;-62
2022/05/04 08:11:45;;;;;;;27.45;11.10;;;13.60;99.90;;;;;;5070968;28;20096;-60
2022/05/04 08:14:12;;;;;;;21.85;11.52;;;13.70;99.90;;;;;;5071465;28;20025;-61
2022/05/04 08:16:39;;;;;;;28.50;12.88;;;13.70;99.90;;;;;;5071592;28;20119;-61
2022/05/04 08:19:06;;;;;;;22.42;11.80;;;13.90;99.90;;;;;;5053532;28;20510;-62
2022/05/04 08:21:33;;;;;;;22.08;11.55;;;13.90;99.90;;;;;;5071278;28;20394;-62
2022/05/04 08:23:59;;;;;;;20.02;11.98;;;14.00;99.90;;;;;;5071408;28;20021;-60
2022/05/04 08:26:25;;;;;;;22.60;12.05;;;14.00;99.90;;;;;;5071174;28;20020;-62
2022/05/04 08:28:51;;;;;;;25.27;12.38;;;14.10;99.90;;;;;;5071142;28;20032;-60
2022/05/04 08:31:17;;;;;;;22.65;12.05;;;14.40;99.90;;;;;;5068038;28;20031;-62
2022/05/04 08:33:43;;;;;;;24.98;13.00;;;14.60;99.90;;;;;;5071358;28;20024;-62
2022/05/04 08:36:09;;;;;;;21.58;11.65;;;;;;;;;;5071164;28;20107;-62
2022/05/04 08:38:35;;;;;;;23.63;12.33;;;;;;;;;;4712052;28;10000479;-61
2022/05/04 08:41:02;;;;;;;22.55;12.48;;;;;;;;;;5060293;28;20428;-63
2022/05/04 08:43:31;;;;;;;24.10;13.40;;;14.90;99.90;;;;;;5040426;28;20099;-61
2022/05/04 08:46:02;;;;;;;21.20;10.95;;;14.50;99.90;;;;;;5051577;28;20853;-64
2022/05/04 08:48:30;;;;;;;25.02;13.15;;;14.40;99.90;;;;;;5034771;28;20405;-61
2022/05/04 08:51:00;;;;;;;21.50;12.40;;;14.40;99.90;;;;;;5029987;28;20025;-61
2022/05/04 08:53:27;;;;;;;21.92;12.60;;;14.50;99.90;;;;;;5048194;28;20282;-60
2022/05/04 08:55:54;;;;;;;27.13;12.23;;;14.30;99.90;;;;;;5055478;28;20485;-61
2022/05/04 08:58:19;;;;;;;25.85;12.85;;;14.40;99.90;;;;;;5058519;28;20231;-61
2022/05/04 09:00:45;;;;;;;23.23;11.70;;;14.40;99.90;;;;;;5043134;28;20035;-58
2022/05/04 09:03:11;;;;;;;23.38;12.35;;;14.60;99.90;;;;;;5059592;28;20043;-61
2022/05/04 09:05:41;;;;;;;25.85;12.45;;;14.70;99.90;;;;;;5066045;28;20025;-61
2022/05/04 09:08:09;;;;;;;23.88;12.10;;;14.60;99.90;;;;;;5068518;28;20036;-60
2022/05/04 09:10:44;;;;;;;22.70;12.07;;;14.60;99.90;;;;;;5069390;28;20027;-61
2022/05/04 09:13:11;;;;;;;25.67;12.68;;;14.60;99.90;;;;;;5063883;28;20107;-61
2022/05/04 09:15:40;;;;;;;23.70;11.95;;;14.60;99.90;;;;;;5052315;28;20033;-63
2022/05/04 09:18:07;;;;;;;25.85;13.90;;;14.60;99.90;;;;;;5052180;28;20040;-61
2022/05/04 09:20:49;;;;;;;20.52;11.70;;;14.60;99.90;;;;;;5054532;28;20033;-63
2022/05/04 09:23:28;;;;;;;23.08;12.32;;;14.70;99.90;;;;;;5034983;28;20378;-60
2022/05/04 09:26:00;;;;;;;24.33;13.18;;;14.80;99.90;;;;;;5054618;28;20098;-63
2022/05/04 09:28:29;;;;;;;22.42;13.43;;;14.60;99.90;;;;;;5061092;28;20026;-63
2022/05/04 09:31:03;;;;;;;20.58;11.98;;;14.70;99.70;;;;;;5060203;28;20072;-58
2022/05/04 09:33:34;;;;;;;20.27;11.77;;;14.90;99.90;;;;;;5062180;28;20017;-59
2022/05/04 09:36:03;;;;;;;23.13;11.85;;;14.90;99.90;;;;;;5046246;28;20024;-60
2022/05/04 09:46:52;;;;;;;22.88;12.55;;;15.10;98.80;;;;;;5074914;28;20051;-68
2022/05/04 09:49:20;;;;;;;23.77;13.10;;;15.10;99.10;;;;;;5074455;28;20072;-65
2022/05/04 09:51:51;;;;;;;23.27;12.60;;;15.00;99.20;;;;;;5074998;28;20062;-68
2022/05/04 09:54:30;;;;;;;22.75;13.13;;;15.10;99.70;;;;;;5056369;28;20024;-66
2022/05/04 09:57:03;;;;;;;21.13;12.18;;;15.20;99.50;;;;;;5074609;28;20020;-68
2022/05/04 09:59:35;;;;;;;25.00;12.68;;;15.50;99.00;;;;;;5074360;28;20475;-68
2022/05/04 10:02:03;;;;;;;25.13;12.57;;;15.40;98.20;;;;;;4722374;28;10000107;-66
2022/05/04 10:04:31;;;;;;;;;;;15.50;98.30;;;;;;5073384;28;20395;-68
2022/05/04 10:06:58;;;;;;;20.92;11.88;;;15.80;97.90;;;;;;5073441;28;19904;-66
2022/05/04 10:09:24;;;;;;;26.75;12.77;;;16.10;97.70;;;;;;5074252;28;20025;-65
2022/05/04 10:11:59;;;;;;;24.83;14.15;;;16.20;97.60;;;;;;5074762;28;20025;-67
2022/05/04 10:14:29;;;;;;;23.45;12.60;;;15.80;97.00;;;;;;5074425;28;20032;-67
2022/05/04 10:17:11;;;;;;;23.30;13.18;;;15.80;97.20;;;;;;5073554;28;20029;-66
2022/05/04 10:19:50;;;;;;;77.03;60.40;;;15.70;97.10;;;;;;5074009;28;20021;-55
2022/05/04 10:22:21;;;;;;;69.60;50.67;;;15.80;97.70;;;;;;5073153;28;20036;-59
2022/05/04 10:24:47;;;;;;;22.50;13.57;;;16.30;97.60;;;;;;5067176;28;20052;-65
2022/05/04 10:27:18;;;;;;;23.35;13.93;;;16.50;96.40;;;;;;5043097;28;20044;-66
2022/05/04 10:32:51;;;;;;;22.75;12.90;;;17.70;95.30;;;;;;5066667;28;20020;-64
2022/05/04 10:35:36;;;;;;;22.20;12.60;;;18.20;93.70;;;;;;5064785;28;20051;-65
2022/05/04 10:38:01;;;;;;;25.60;14.27;;;18.00;93.40;;;;;;5064403;28;20078;-64
2022/05/04 10:40:40;;;;;;;22.73;12.77;;;17.80;93.30;;;;;;5068145;28;20616;-65
2022/05/04 10:43:12;;;;;;;21.85;12.85;;;17.50;93.50;;;;;;5035644;28;20025;-65
2022/05/04 10:45:43;;;;;;;22.45;13.90;;;17.20;93.90;;;;;;5053492;28;20036;-63
2022/05/04 10:48:15;;;;;;;22.50;13.13;;;17.20;94.30;;;;;;5053243;28;20032;-64
2022/05/04 10:50:55;;;;;;;22.67;12.70;;;17.10;94.30;;;;;;5052985;28;20028;-59
2022/05/04 10:53:24;;;;;;;25.00;13.57;;;17.70;94.00;;;;;;5053239;28;20044;-61
2022/05/04 10:56:01;;;;;;;24.42;13.57;;;17.90;94.20;;;;;;5052941;28;20062;-60
2022/05/04 10:58:34;;;;;;;23.60;14.37;;;17.90;93.50;;;;;;5060485;28;20020;-62
2022/05/04 11:01:12;;;;;;;24.02;13.30;;;17.70;93.70;;;;;;5072802;28;20267;-62
2022/05/04 11:04:17;;;;;;;23.60;13.23;;;17.70;93.90;;;;;;5072927;28;20540;-61
2022/05/04 11:07:08;;;;;;;25.95;14.02;;;17.00;93.90;;;;;;5050873;28;20043;-62
2022/05/04 11:09:42;;;;;;;23.73;13.57;;;17.00;94.20;;;;;;5061268;28;20039;-63
2022/05/04 11:12:10;;;;;;;27.77;19.38;;;17.50;94.10;;;;;;5072659;28;20469;-63
2022/05/04 11:14:37;;;;;;;23.15;14.65;;;17.60;93.40;;;;;;5072745;28;20039;-63
2022/05/04 11:17:12;;;;;;;24.58;14.65;;;17.50;93.10;;;;;;5072464;28;20498;-62
2022/05/04 11:19:43;;;;;;;27.63;15.45;;;17.80;93.50;;;;;;5072544;28;20657;-62
2022/05/04 11:22:09;;;;;;;26.48;15.77;;;18.00;92.70;;;;;;5072712;28;20202;-61
2022/05/04 11:24:34;;;;;;;23.25;15.25;;;18.30;92.90;;;;;;5072510;28;20025;-62
2022/05/04 11:27:00;;;;;;;23.33;15.13;;;18.60;91.60;;;;;;5072420;28;20133;-62
2022/05/04 11:29:28;;;;;;;27.13;16.15;;;18.70;91.70;;;;;;5072037;28;20437;-63
2022/05/04 11:31:57;;;;;;;27.10;14.20;;;18.30;91.30;;;;;;5072291;28;20027;-63
2022/05/04 11:34:27;;;;;;;24.73;15.25;;;19.10;91.50;;;;;;5071566;28;20021;-60
2022/05/04 11:36:56;;;;;;;24.27;14.60;;;19.10;90.90;;;;;;5071981;28;20032;-59
2022/05/04 11:39:24;;;;;;;22.08;14.52;;;19.10;90.80;;;;;;5072027;28;20031;-59
2022/05/04 11:41:51;;;;;;;24.25;15.38;;;18.80;90.90;;;;;;5072122;28;20524;-58
2022/05/04 11:44:21;;;;;;;25.20;15.35;;;19.60;90.80;;;;;;5054064;28;20040;-60
2022/05/04 11:46:47;;;;;;;22.15;15.55;;;21.30;87.30;;;;;;5053925;28;20025;-59
2022/05/04 11:49:14;;;;;;;22.80;15.57;;;20.00;87.80;;;;;;5071860;28;20052;-60
2022/05/04 11:51:40;;;;;;;26.30;16.23;;;21.30;88.20;;;;;;5071916;28;20025;-59
2022/05/04 11:54:09;;;;;;;24.70;16.38;;;21.90;84.40;;;;;;5071905;28;20376;-61
2022/05/04 11:56:36;;;;;;;24.85;17.20;;;23.50;82.20;;;;;;5071742;28;20013;-60
2022/05/04 11:59:02;;;;;;;25.75;15.55;;;22.70;78.90;;;;;;5053366;28;20051;-60
2022/05/04 12:01:28;;;;;;;22.10;14.57;;;21.60;79.50;;;;;;5052818;28;20393;-60
2022/05/04 12:03:55;;;;;;;27.42;15.65;;;22.60;81.30;;;;;;5052100;28;20028;-61
2022/05/04 12:06:21;;;;;;;22.27;15.48;;;23.60;76.10;;;;;;5033739;28;20021;-61
2022/05/04 12:08:47;;;;;;;22.33;15.55;;;24.70;74.00;;;;;;5064391;28;20025;-57
2022/05/04 12:11:14;;;;;;;23.48;15.57;;;24.70;70.90;;;;;;5053378;28;20036;-58
2022/05/04 12:13:42;;;;;;;22.67;15.32;;;25.40;70.00;;;;;;5033249;28;20048;-60
2022/05/04 12:16:09;;;;;;;22.75;14.55;;;25.50;68.40;;;;;;5051542;28;20036;-60
2022/05/04 12:18:37;;;;;;;19.33;13.88;;;25.60;67.40;;;;;;5034623;28;20116;-57
2022/05/04 12:21:22;;;;;;;21.89;14.58;;;25.30;67.00;;;;;;5050500;28;10000786;-59
2022/05/04 12:23:50;;;;;;;24.67;15.60;;;24.50;66.40;;;;;;5062899;28;20911;-61
2022/05/04 12:26:16;;;;;;;;;;;24.10;66.90;;;;;;5063880;28;20472;-59
2022/05/04 12:33:08;;;;;;;22.38;14.23;;;24.40;66.60;;;;;;5030004;28;19909;-58
2022/05/04 12:34:14;;;;;;;19.95;13.55;;;26.00;63.20;;;;;;5068681;28;19962;-60
2022/05/04 12:36:41;;;;;;;23.05;13.40;;;26.10;62.60;;;;;;5038404;28;20033;-58
2022/05/04 12:39:07;;;;;;;20.58;14.20;;;24.90;61.30;;;;;;5060810;28;20044;-60
2022/05/04 12:41:35;;;;;;;22.10;14.48;;;23.70;64.00;;;;;;5051974;28;20056;-60
2022/05/04 12:44:04;;;;;;;21.75;13.95;;;22.80;64.90;;;;;;5030982;28;20056;-61
2022/05/04 12:46:30;;;;;;;21.65;14.10;;;23.70;65.10;;;;;;5054129;28;20025;-59
2022/05/04 12:48:56;;;;;;;20.37;14.07;;;25.10;63.50;;;;;;4708799;28;9999917;-60
2022/05/04 12:51:24;;;;;;;21.48;13.68;;;25.90;60.60;;;;;;5057348;28;20458;-61
2022/05/04 12:53:51;;;;;;;21.45;14.60;;;26.90;60.00;;;;;;5063489;28;20020;-60
2022/05/04 12:59:02;;;;;;;20.88;13.95;;;25.90;59.20;;;;;;5074481;28;20106;-60
2022/05/04 13:01:31;;;;;;;22.42;15.48;;;25.70;59.60;;;;;;5051944;28;20017;-60
2022/05/04 13:03:58;;;;;;;23.45;14.55;;;25.30;59.50;;;;;;5054637;28;20029;-58
2022/05/04 13:06:24;;;;;;;22.35;13.82;;;26.10;60.30;;;;;;5054702;28;20071;-59
2022/05/04 13:08:51;;;;;;;23.17;14.50;;;25.70;58.20;;;;;;5036772;28;20020;-59
2022/05/04 13:11:21;;;;;;;19.88;14.13;;;25.60;57.60;;;;;;5054960;28;20029;-61
2022/05/04 13:13:47;;;;;;;25.23;14.32;;;26.10;58.40;;;;;;5054460;28;20070;-61
2022/05/04 13:16:16;;;;;;;20.95;15.02;;;26.80;58.10;;;;;;5054006;28;20079;-61